Wan Hai 508 — 9VJJ6 — position and weather

sailwx.info

Track history (hours):
 
Tides and Currents Weather Stations Pressure Air Temp Water Temp Dewpoint Dewpoint Depression Visibility Wind Speed Wind Dir Waves Ship Positions

Wan Hai 508

Last reported at 2018-Apr-26 06:59 UTC. Time now 2018-Apr-27 05:03 UTC.
Position N 23°17' E 117°32'.

Length 269 m; draft 9.9 m.

Type: Cargo ship. MMSI: 565567000.

Date/timePositionNaut miles runAvg speedWind from/ knotsBaromVisibWave heightAir tempDewpointWater temp
2018-Apr-26 06:59N 23°17' E 117°32'1020.6
2018-Apr-26 06:30N 23°23' E 117°41'1021.0
2018-Apr-26 06:00N 23°30' E 117°50'1121.1
2018-Apr-26 05:30N 23°37' E 117°58'1221.2
2018-Apr-26 04:57N 23°45' E 118°08'1021.3
2018-Apr-26 04:30N 23°51' E 118°16'1221.7
2018-Apr-26 03:56N 23°59' E 118°26'1021.6
2018-Apr-26 03:29N 24°06' E 118°34'2021.6
2018-Apr-26 02:32N 24°18' E 118°51'  
2018-Apr-19 20:44N 31°05' E 122°25'513.3
2018-Apr-19 20:22N 31°06' E 122°19'814.5
2018-Apr-19 19:50N 31°10' E 122°12'514.7
2018-Apr-19 19:30N 31°13' E 122°07'714.2
2018-Apr-19 19:00N 31°15' E 121°59'1014.3
2018-Apr-19 18:17N 31°18' E 121°48'7 0.9
2018-Apr-19 10:30N 31°20' E 121°40'0 0.0
2018-Apr-19 09:06N 31°20' E 121°40'0 0.0
2018-Apr-19 08:42N 31°20' E 121°40'0 0.0
2018-Apr-18 23:42N 31°20' E 121°40'0 0.0
2018-Apr-18 18:52N 31°20' E 121°40'1 1.8
2018-Apr-18 18:30N 31°20' E 121°40'1 1.3
2018-Apr-18 17:59N 31°21' E 121°40'5 7.7
2018-Apr-18 17:19N 31°19' E 121°45'3 9.8
2018-Apr-18 17:00N 31°17' E 121°49'510.3
2018-Apr-18 16:30N 31°16' E 121°54'510.4
2018-Apr-18 15:59N 31°15' E 122°00'611.3
2018-Apr-18 15:27N 31°13' E 122°07'510.3
2018-Apr-18 14:57N 31°10' E 122°12'511.1
2018-Apr-18 14:30N 31°07' E 122°17'611.7
2018-Apr-18 14:00N 31°06' E 122°24'4 8.7
2018-Apr-18 13:30N 31°07' E 122°28'713.2
2018-Apr-18 13:00N 31°09' E 122°36'3 5.0
2018-Apr-18 12:29N 31°09' E 122°39'0 0.0
2018-Apr-18 09:01N 31°09' E 122°39'0 0.0
2018-Apr-18 08:42N 31°09' E 122°39'0 0.1
2018-Apr-18 07:24N 31°09' E 122°39'0 0.1
2018-Apr-18 06:18N 31°09' E 122°39'0 0.2
2018-Apr-18 06:00N 31°09' E 122°39'0 0.0
2018-Apr-18 02:21N 31°09' E 122°39'0 0.1
2018-Apr-18 02:00N 31°09' E 122°39'0 0.2
2018-Apr-18 01:15N 31°09' E 122°39'0 0.2
2018-Apr-18 00:54N 31°09' E 122°39'0 0.1
2018-Apr-17 23:27N 31°09' E 122°39'0 0.0
2018-Apr-17 21:27N 31°09' E 122°39'0 0.1
2018-Apr-17 20:27N 31°09' E 122°39'0 0.1
2018-Apr-17 19:51N 31°09' E 122°39'0 0.1
2018-Apr-17 14:48N 31°09' E 122°39'0 0.1
2018-Apr-17 12:42N 31°09' E 122°39'0 0.1
2018-Apr-17 08:48N 31°09' E 122°39'0 0.0
2018-Apr-17 08:09N 31°09' E 122°39'0 0.0
2018-Apr-17 07:59N 31°09' E 122°39'0 0.0
2018-Apr-17 06:48N 31°09' E 122°39'0 0.1
2018-Apr-17 06:24N 31°09' E 122°39'  
Track history (hours):
 
Tides and Currents Weather Stations Pressure Air Temp Water Temp Dewpoint Dewpoint Depression Visibility Wind Speed Wind Dir Waves Ship Positions

Wan Hai 508

Last reported at 2018-Apr-26 06:59 UTC. Time now 2018-Apr-27 05:03 UTC.
Position N 23°17' E 117°32'.

Length 269 m; draft 9.9 m.

Type: Cargo ship. MMSI: 565567000.

Date/timePositionNaut miles runAvg speedWind from/ knotsBaromVisibWave heightAir tempDewpointWater temp
2018-Apr-26 06:59N 23°17' E 117°32'1020.6
2018-Apr-26 06:30N 23°23' E 117°41'1021.0
2018-Apr-26 06:00N 23°30' E 117°50'1121.1
2018-Apr-26 05:30N 23°37' E 117°58'1221.2
2018-Apr-26 04:57N 23°45' E 118°08'1021.3
2018-Apr-26 04:30N 23°51' E 118°16'1221.7
2018-Apr-26 03:56N 23°59' E 118°26'1021.6
2018-Apr-26 03:29N 24°06' E 118°34'2021.6
2018-Apr-26 02:32N 24°18' E 118°51'  
2018-Apr-19 20:44N 31°05' E 122°25'513.3
2018-Apr-19 20:22N 31°06' E 122°19'814.5
2018-Apr-19 19:50N 31°10' E 122°12'514.7
2018-Apr-19 19:30N 31°13' E 122°07'714.2
2018-Apr-19 19:00N 31°15' E 121°59'1014.3
2018-Apr-19 18:17N 31°18' E 121°48'7 0.9
2018-Apr-19 10:30N 31°20' E 121°40'0 0.0
2018-Apr-19 09:06N 31°20' E 121°40'0 0.0
2018-Apr-19 08:42N 31°20' E 121°40'0 0.0
2018-Apr-18 23:42N 31°20' E 121°40'0 0.0
2018-Apr-18 18:52N 31°20' E 121°40'1 1.8
2018-Apr-18 18:30N 31°20' E 121°40'1 1.3
2018-Apr-18 17:59N 31°21' E 121°40'5 7.7
2018-Apr-18 17:19N 31°19' E 121°45'3 9.8
2018-Apr-18 17:00N 31°17' E 121°49'510.3
2018-Apr-18 16:30N 31°16' E 121°54'510.4
2018-Apr-18 15:59N 31°15' E 122°00'611.3
2018-Apr-18 15:27N 31°13' E 122°07'510.3
2018-Apr-18 14:57N 31°10' E 122°12'511.1
2018-Apr-18 14:30N 31°07' E 122°17'611.7
2018-Apr-18 14:00N 31°06' E 122°24'4 8.7
2018-Apr-18 13:30N 31°07' E 122°28'713.2
2018-Apr-18 13:00N 31°09' E 122°36'3 5.0
2018-Apr-18 12:29N 31°09' E 122°39'0 0.0
2018-Apr-18 09:01N 31°09' E 122°39'0 0.0
2018-Apr-18 08:42N 31°09' E 122°39'0 0.1
2018-Apr-18 07:24N 31°09' E 122°39'0 0.1
2018-Apr-18 06:18N 31°09' E 122°39'0 0.2
2018-Apr-18 06:00N 31°09' E 122°39'0 0.0
2018-Apr-18 02:21N 31°09' E 122°39'0 0.1
2018-Apr-18 02:00N 31°09' E 122°39'0 0.2
2018-Apr-18 01:15N 31°09' E 122°39'0 0.2
2018-Apr-18 00:54N 31°09' E 122°39'0 0.1
2018-Apr-17 23:27N 31°09' E 122°39'0 0.0
2018-Apr-17 21:27N 31°09' E 122°39'0 0.1
2018-Apr-17 20:27N 31°09' E 122°39'0 0.1
2018-Apr-17 19:51N 31°09' E 122°39'0 0.1
2018-Apr-17 14:48N 31°09' E 122°39'0 0.1
2018-Apr-17 12:42N 31°09' E 122°39'0 0.1
2018-Apr-17 08:48N 31°09' E 122°39'0 0.0
2018-Apr-17 08:09N 31°09' E 122°39'0 0.0
2018-Apr-17 07:59N 31°09' E 122°39'0 0.0
2018-Apr-17 06:48N 31°09' E 122°39'0 0.1
2018-Apr-17 06:24N 31°09' E 122°39'  

Dump ship's entire track history